Time;durP1;ratioP1;P1;durP2;ratioP2;P2;SDS_P1;SDS_P2;PMS_P1;PMS_P2;Temp;Humidity;BMP_temperature;BMP_pressure;BME280_temperature;BME280_humidity;BME280_pressure;Samples;Min_cycle;Max_cycle;Signal;HPM_P1;HPM_P2
2023/08/13 00:01:37;;;;;;;14.05;4.85;;;;;;;;;;5130011;27;20046;-64
2023/08/13 00:05:17;;;;;;;14.70;5.05;;;;;;;;;;5131275;27;20830;-62
2023/08/13 00:08:57;;;;;;;16.05;4.95;;;;;;;;;;5133201;27;20052;-63
2023/08/13 00:12:38;;;;;;;10.82;4.10;;;;;;;;;;5139177;27;20459;-62
2023/08/13 00:16:19;;;;;;;14.82;5.10;;;;;;;;;;5130913;27;20086;-65
2023/08/13 00:19:58;;;;;;;14.07;5.03;;;;;;;;;;5131761;27;20340;-64
2023/08/13 00:23:39;;;;;;;17.55;5.20;;;;;;;;;;5132121;27;20050;-63
2023/08/13 00:27:19;;;;;;;14.05;5.05;;;;;;;;;;5129561;27;20450;-62
2023/08/13 00:30:59;;;;;;;19.05;5.30;;;;;;;;;;5132122;27;20107;-64
2023/08/13 00:34:40;;;;;;;11.68;4.72;;;;;;;;;;5133088;27;20035;-67
2023/08/13 00:38:20;;;;;;;16.40;4.82;;;;;;;;;;5135040;27;20046;-65
2023/08/13 00:42:01;;;;;;;18.10;4.78;;;;;;;;;;5132588;27;20129;-64
2023/08/13 00:45:41;;;;;;;12.65;4.53;;;;;;;;;;5132203;27;20062;-64
2023/08/13 00:49:23;;;;;;;20.75;5.40;;;;;;;;;;5134132;27;20122;-63
2023/08/13 00:53:01;;;;;;;13.52;4.68;;;;;;;;;;5134624;27;20050;-63
2023/08/13 00:56:42;;;;;;;10.85;4.28;;;;;;;;;;5132819;27;20078;-62
2023/08/13 01:00:22;;;;;;;10.40;4.70;;;;;;;;;;5132802;27;20661;-63
2023/08/13 01:04:03;;;;;;;9.75;4.20;;;;;;;;;;5134727;27;20054;-63
2023/08/13 01:08:01;;;;;;;10.15;4.18;;;;;;;;;;5133080;27;20077;-64
2023/08/13 01:11:41;;;;;;;12.05;4.20;;;;;;;;;;5136574;27;20052;-64
2023/08/13 01:15:20;;;;;;;12.52;4.30;;;;;;;;;;5132310;27;20531;-63
2023/08/13 01:19:00;;;;;;;15.13;4.82;;;;;;;;;;5134358;27;20138;-64
2023/08/13 01:22:41;;;;;;;13.98;4.95;;;;;;;;;;5137292;27;20035;-63
2023/08/13 01:26:21;;;;;;;20.67;4.95;;;;;;;;;;5133998;27;20043;-63
2023/08/13 01:30:02;;;;;;;13.30;4.60;;;;;;;;;;5137182;27;20482;-65
2023/08/13 01:33:42;;;;;;;14.00;5.13;;;;;;;;;;5138481;27;20062;-65
2023/08/13 01:37:22;;;;;;;15.02;5.47;;;;;;;;;;5135310;27;20618;-63
2023/08/13 01:41:03;;;;;;;16.42;4.90;;;;;;;;;;5135548;27;20239;-64
2023/08/13 01:44:43;;;;;;;15.70;5.00;;;;;;;;;;5138854;27;20054;-63
2023/08/13 01:48:24;;;;;;;12.35;4.85;;;;;;;;;;5136778;27;20110;-64
2023/08/13 01:52:04;;;;;;;22.00;5.13;;;;;;;;;;5135249;27;20070;-63
2023/08/13 01:55:44;;;;;;;13.80;6.28;;;;;;;;;;5136632;27;20685;-64
2023/08/13 01:59:25;;;;;;;12.38;6.07;;;;;;;;;;5140695;27;20405;-64
2023/08/13 02:03:05;;;;;;;15.43;6.55;;;;;;;;;;5135974;27;20047;-64
2023/08/13 02:06:45;;;;;;;12.50;5.63;;;;;;;;;;5133496;27;21632;-64
2023/08/13 02:10:26;;;;;;;14.48;5.32;;;;;;;;;;5138114;27;20672;-63
2023/08/13 02:14:06;;;;;;;13.35;6.10;;;;;;;;;;5137433;27;20077;-64
2023/08/13 02:17:46;;;;;;;12.93;6.22;;;;;;;;;;5137695;27;20066;-64
2023/08/13 02:21:27;;;;;;;17.05;6.40;;;;;;;;;;5133237;27;20045;-63
2023/08/13 02:25:07;;;;;;;16.77;5.75;;;;;;;;;;5132691;27;20136;-63
2023/08/13 02:28:47;;;;;;;15.23;5.78;;;;;;;;;;5136484;27;20062;-65
2023/08/13 02:32:28;;;;;;;14.73;5.43;;;;;;;;;;5131632;27;20168;-64
2023/08/13 02:36:08;;;;;;;13.85;4.43;;;;;;;;;;5135902;27;20054;-63
2023/08/13 02:39:49;;;;;;;17.55;4.63;;;;;;;;;;5136923;27;20035;-63
2023/08/13 02:43:29;;;;;;;14.02;4.30;;;;;;;;;;5135980;27;20052;-64
2023/08/13 02:47:09;;;;;;;13.35;4.60;;;;;;;;;;5138308;27;20054;-64
2023/08/13 02:50:50;;;;;;;13.93;4.55;;;;;;;;;;5135432;27;20655;-64
2023/08/13 02:54:30;;;;;;;11.43;4.32;;;;;;;;;;5135803;27;20045;-64
2023/08/13 02:58:10;;;;;;;14.20;4.40;;;;;;;;;;5137300;27;20115;-64
2023/08/13 03:01:50;;;;;;;13.90;4.28;;;;;;;;;;5137098;27;20094;-65
2023/08/13 03:05:32;;;;;;;13.52;4.75;;;;;;;;;;5134721;27;20387;-64
2023/08/13 03:09:11;;;;;;;14.82;4.28;;;;;;;;;;5137575;27;20088;-66
2023/08/13 03:12:51;;;;;;;10.38;4.40;;;;;;;;;;5137205;27;20382;-66
2023/08/13 03:16:32;;;;;;;10.57;4.10;;;;;;;;;;5135263;27;20050;-65
2023/08/13 03:20:12;;;;;;;10.95;4.30;;;;;;;;;;5133865;27;20514;-64
2023/08/13 03:23:52;;;;;;;12.52;4.30;;;;;;;;;;5136772;27;20169;-63
2023/08/13 03:27:33;;;;;;;14.77;4.20;;;;;;;;;;5135427;27;20579;-64
2023/08/13 03:31:22;;;;;;;8.60;4.20;;;;;;;;;;5133037;27;20232;-62
2023/08/13 03:35:02;;;;;;;8.68;3.85;;;;;;;;;;5135776;27;20067;-63
2023/08/13 03:38:43;;;;;;;15.27;4.00;;;;;;;;;;5135276;27;20129;-62
2023/08/13 03:42:23;;;;;;;12.23;4.45;;;;;;;;;;5136489;27;20042;-63
2023/08/13 03:46:03;;;;;;;12.52;4.50;;;;;;;;;;5134071;27;20066;-63
2023/08/13 03:49:45;;;;;;;13.35;4.18;;;;;;;;;;5135580;27;20043;-64
2023/08/13 03:53:24;;;;;;;14.00;4.68;;;;;;;;;;5134920;27;20429;-64
2023/08/13 03:57:04;;;;;;;14.15;4.45;;;;;;;;;;5133948;27;20053;-64
2023/08/13 04:00:45;;;;;;;13.98;4.28;;;;;;;;;;5134180;27;20137;-64
2023/08/13 04:04:25;;;;;;;11.63;4.50;;;;;;;;;;5138303;27;20041;-63
2023/08/13 04:08:05;;;;;;;13.70;4.65;;;;;;;;;;5134962;27;20052;-64
2023/08/13 04:11:46;;;;;;;12.35;4.68;;;;;;;;;;5141446;27;20049;-64
2023/08/13 04:15:26;;;;;;;13.05;4.70;;;;;;;;;;5133227;27;22446;-63
2023/08/13 04:19:06;;;;;;;18.00;4.80;;;;;;;;;;5132926;27;20121;-64
2023/08/13 04:22:47;;;;;;;13.32;4.75;;;;;;;;;;5136440;27;20047;-64
2023/08/13 04:26:27;;;;;;;15.65;5.00;;;;;;;;;;5132829;27;20691;-65
2023/08/13 04:30:08;;;;;;;14.30;4.85;;;;;;;;;;5134518;27;20387;-64
2023/08/13 04:33:48;;;;;;;14.90;4.68;;;;;;;;;;5136741;27;20054;-64
2023/08/13 04:37:28;;;;;;;14.57;5.15;;;;;;;;;;5131616;27;20439;-63
2023/08/13 04:41:09;;;;;;;15.32;5.18;;;;;;;;;;5131860;27;20050;-65
2023/08/13 04:44:49;;;;;;;14.25;4.93;;;;;;;;;;5133004;27;20137;-64
2023/08/13 04:48:29;;;;;;;11.70;4.95;;;;;;;;;;5134343;27;20346;-64
2023/08/13 04:52:09;;;;;;;11.40;4.65;;;;;;;;;;5132948;27;20075;-65
2023/08/13 04:55:50;;;;;;;13.35;4.57;;;;;;;;;;5133639;27;20057;-64
2023/08/13 04:59:30;;;;;;;18.17;5.63;;;;;;;;;;5137342;27;20060;-64
2023/08/13 05:03:10;;;;;;;13.95;5.22;;;;;;;;;;5134324;27;20054;-65
2023/08/13 05:06:51;;;;;;;15.35;4.72;;;;;;;;;;5132589;27;20041;-63
2023/08/13 05:10:32;;;;;;;17.08;4.90;;;;;;;;;;5133914;27;20339;-64
2023/08/13 05:14:11;;;;;;;13.40;4.85;;;;;;;;;;5134970;27;22748;-63
2023/08/13 05:17:58;;;;;;;16.55;4.75;;;;;;;;;;5134338;27;20114;-64
2023/08/13 05:21:38;;;;;;;18.02;5.28;;;;;;;;;;5134248;27;20484;-65
2023/08/13 05:25:19;;;;;;;15.30;5.25;;;;;;;;;;5134314;27;20145;-64
2023/08/13 05:28:59;;;;;;;15.55;5.10;;;;;;;;;;5135011;27;20042;-63
2023/08/13 05:32:39;;;;;;;19.63;5.28;;;;;;;;;;5135094;27;20512;-64
2023/08/13 05:36:20;;;;;;;13.68;5.00;;;;;;;;;;5135738;27;20061;-65
2023/08/13 05:40:00;;;;;;;18.00;4.97;;;;;;;;;;5133077;27;20505;-65
2023/08/13 05:43:40;;;;;;;11.45;4.50;;;;;;;;;;5134723;27;20121;-64
2023/08/13 05:47:21;;;;;;;15.05;5.13;;;;;;;;;;5133499;27;20049;-64
2023/08/13 05:51:01;;;;;;;18.85;5.25;;;;;;;;;;5133185;27;20050;-65
2023/08/13 05:54:42;;;;;;;17.23;4.88;;;;;;;;;;5142539;27;20567;-65
2023/08/13 05:58:22;;;;;;;15.65;4.57;;;;;;;;;;5131955;27;20057;-65
2023/08/13 06:02:02;;;;;;;15.15;5.43;;;;;;;;;;5131959;27;20616;-64
2023/08/13 06:05:43;;;;;;;12.25;4.72;;;;;;;;;;5133590;27;20110;-66
2023/08/13 06:09:23;;;;;;;14.73;5.22;;;;;;;;;;5136914;27;20122;-65
2023/08/13 06:13:03;;;;;;;15.70;4.32;;;;;;;;;;5138973;27;20066;-65
2023/08/13 06:16:44;;;;;;;14.88;4.47;;;;;;;;;;5135357;27;20115;-64
2023/08/13 06:20:24;;;;;;;16.40;5.20;;;;;;;;;;5135975;27;20416;-64
2023/08/13 06:24:05;;;;;;;11.88;4.95;;;;;;;;;;5140349;27;20659;-63
2023/08/13 06:27:45;;;;;;;11.27;4.57;;;;;;;;;;5137507;27;20038;-64
2023/08/13 06:31:25;;;;;;;14.05;4.72;;;;;;;;;;5138730;27;20051;-63
2023/08/13 06:35:06;;;;;;;15.43;4.82;;;;;;;;;;5142065;27;20073;-65
2023/08/13 06:38:46;;;;;;;14.52;4.78;;;;;;;;;;5140649;27;20043;-64
2023/08/13 06:42:26;;;;;;;13.82;4.63;;;;;;;;;;5137927;27;20054;-64
2023/08/13 06:46:07;;;;;;;12.73;4.97;;;;;;;;;;5136701;27;20505;-65
2023/08/13 06:49:47;;;;;;;12.57;4.90;;;;;;;;;;5137388;27;20137;-65
2023/08/13 06:53:27;;;;;;;13.52;4.95;;;;;;;;;;5137427;27;20049;-65
2023/08/13 06:57:07;;;;;;;15.85;5.00;;;;;;;;;;5135452;27;20050;-64
2023/08/13 07:00:48;;;;;;;13.52;5.13;;;;;;;;;;5136633;27;20080;-65
2023/08/13 07:04:28;;;;;;;18.25;4.93;;;;;;;;;;5135860;27;20042;-65
2023/08/13 07:08:11;;;;;;;12.75;4.97;;;;;;;;;;5137990;27;20177;-63
2023/08/13 07:11:52;;;;;;;14.35;5.07;;;;;;;;;;5135229;27;20490;-65
2023/08/13 07:15:32;;;;;;;18.08;5.07;;;;;;;;;;5134997;27;20130;-64
2023/08/13 07:19:13;;;;;;;14.85;4.80;;;;;;;;;;5136550;27;20062;-63
2023/08/13 07:22:53;;;;;;;13.32;4.32;;;;;;;;;;5140568;27;20401;-66
2023/08/13 07:26:34;;;;;;;15.45;4.85;;;;;;;;;;5134491;27;20045;-68
2023/08/13 07:30:14;;;;;;;12.45;4.65;;;;;;;;;;5135954;27;22435;-66
2023/08/13 07:33:55;;;;;;;11.35;4.85;;;;;;;;;;5139448;27;20088;-65
2023/08/13 07:37:34;;;;;;;14.35;4.82;;;;;;;;;;5132508;27;20046;-65
2023/08/13 07:41:15;;;;;;;9.30;4.35;;;;;;;;;;5133944;27;20069;-65
2023/08/13 07:44:55;;;;;;;12.88;4.38;;;;;;;;;;5137412;27;20050;-65
2023/08/13 07:48:35;;;;;;;11.98;4.50;;;;;;;;;;5137382;27;20053;-64
2023/08/13 07:52:16;;;;;;;14.50;4.75;;;;;;;;;;5134995;27;20159;-65
2023/08/13 07:55:56;;;;;;;11.98;4.15;;;;;;;;;;5140999;27;20054;-65
2023/08/13 07:59:36;;;;;;;15.70;4.47;;;;;;;;;;5135635;27;20423;-64
2023/08/13 08:03:17;;;;;;;10.05;3.78;;;;;;;;;;5134581;27;20054;-65
2023/08/13 08:06:57;;;;;;;12.82;3.72;;;;;;;;;;5133329;27;20060;-64
2023/08/13 08:10:37;;;;;;;10.70;3.67;;;;;;;;;;5134492;27;20049;-66
2023/08/13 08:14:19;;;;;;;13.80;4.20;;;;;;;;;;5135352;27;20627;-65
2023/08/13 08:17:59;;;;;;;7.95;3.92;;;;;;;;;;5134648;27;20042;-65
2023/08/13 08:21:16;;;;;;;15.63;4.15;;;;;;;;;;5132757;27;20488;-65
2023/08/13 08:23:42;;;;;;;12.40;4.28;;;;;;;;;;5138338;27;20046;-65
2023/08/13 08:26:08;;;;;;;12.55;4.15;;;;;;;;;;5133711;27;20042;-65
2023/08/13 08:28:34;;;;;;;10.40;4.28;;;;;;;;;;5134802;27;20406;-64
2023/08/13 08:31:01;;;;;;;9.38;4.25;;;;;;;;;;5132573;27;20073;-64
2023/08/13 08:33:27;;;;;;;13.00;4.72;;;;;;;;;;5139723;27;20255;-65
2023/08/13 08:35:52;;;;;;;10.05;3.83;;;;;;;;;;5134295;27;20459;-65
2023/08/13 09:09:32;;;;;;;11.63;4.27;;;;;;;;;;6074023;22;1455411;-61
2023/08/13 09:13:15;;;;;;;9.25;4.07;;;;;;;;;;6216922;23;20242;-63
2023/08/13 09:16:56;;;;;;;12.13;4.90;;;;;;;;;;6218519;23;20335;-63
2023/08/13 09:20:17;;;;;;;12.07;4.80;;;;;;;;;;6215606;23;20070;-61
2023/08/13 09:23:59;;;;;;;9.77;4.65;;;;;;;;;;6218283;23;20020;-63
2023/08/13 09:27:40;;;;;;;10.43;4.38;;;;;;;;;;6215142;23;20079;-60
2023/08/13 09:31:20;;;;;;;9.98;4.53;;;;;;;;;;6215554;23;20031;-62
2023/08/13 09:35:00;;;;;;;10.32;4.10;;;;;;;;;;6215096;23;20078;-61
2023/08/13 09:38:40;;;;;;;13.10;5.03;;;;;;;;;;6216870;23;20031;-60
2023/08/13 09:42:21;;;;;;;9.60;4.50;;;;;;;;;;6217291;23;20024;-63
2023/08/13 09:46:01;;;;;;;15.18;4.55;;;;;;;;;;6216188;23;20020;-64
2023/08/13 09:49:41;;;;;;;10.98;4.50;;;;;;;;;;6216294;23;20024;-65
2023/08/13 09:53:22;;;;;;;11.88;4.57;;;;;;;;;;6216307;23;20103;-62
2023/08/13 09:57:03;;;;;;;10.10;3.80;;;;;;;;;;6215185;23;20024;-62
2023/08/13 10:00:43;;;;;;;8.07;3.90;;;;;;;;;;6212944;23;20583;-64
2023/08/13 10:04:23;;;;;;;12.80;4.25;;;;;;;;;;6207883;23;20020;-61
2023/08/13 10:08:03;;;;;;;11.02;4.75;;;;;;;;;;6208729;23;20012;-63
2023/08/13 10:11:44;;;;;;;10.52;4.05;;;;;;;;;;6209571;23;20029;-63
2023/08/13 10:15:25;;;;;;;12.45;4.80;;;;;;;;;;6208891;23;20033;-62
2023/08/13 10:19:05;;;;;;;13.68;4.00;;;;;;;;;;6208495;23;20024;-62
2023/08/13 10:22:51;;;;;;;9.63;3.83;;;;;;;;;;6207040;23;20043;-66
2023/08/13 10:26:31;;;;;;;10.35;3.85;;;;;;;;;;6207627;23;20027;-63
2023/08/13 10:30:27;;;;;;;9.82;4.20;;;;;;;;;;6208237;23;20017;-63
2023/08/13 10:34:07;;;;;;;12.52;3.90;;;;;;;;;;6208509;23;20504;-64
2023/08/13 10:37:47;;;;;;;9.02;3.33;;;;;;;;;;6206738;23;20047;-63
2023/08/13 10:41:37;;;;;;;13.15;4.15;;;;;;;;;;6208602;23;20024;-60
2023/08/13 10:45:23;;;;;;;7.97;3.75;;;;;;;;;;6208579;23;20021;-61
2023/08/13 10:49:07;;;;;;;11.25;3.47;;;;;;;;;;6206731;23;20031;-61
2023/08/13 10:52:51;;;;;;;7.40;3.20;;;;;;;;;;6206512;23;21073;-61
2023/08/13 10:56:30;;;;;;;5.68;3.53;;;;;;;;;;6207615;23;20545;-63
2023/08/13 11:00:11;;;;;;;8.10;2.90;;;;;;;;;;6206219;23;20021;-63
2023/08/13 11:03:55;;;;;;;11.02;3.47;;;;;;;;;;6207872;23;20110;-64
2023/08/13 11:07:35;;;;;;;15.90;3.88;;;;;;;;;;6208763;23;20029;-69
2023/08/13 11:11:16;;;;;;;12.50;3.28;;;;;;;;;;6209693;23;20399;-64
2023/08/13 11:14:56;;;;;;;8.80;3.20;;;;;;;;;;6209945;23;20016;-62
2023/08/13 11:18:36;;;;;;;17.65;3.28;;;;;;;;;;6209192;23;20017;-62
2023/08/13 11:22:17;;;;;;;11.40;3.60;;;;;;;;;;6209650;23;20047;-62
2023/08/13 11:25:57;;;;;;;7.82;3.20;;;;;;;;;;6209497;23;20419;-61
2023/08/13 11:29:37;;;;;;;8.45;2.75;;;;;;;;;;6207852;23;20013;-61
2023/08/13 11:33:17;;;;;;;7.68;3.20;;;;;;;;;;6208481;23;20027;-62
2023/08/13 11:36:58;;;;;;;7.50;2.90;;;;;;;;;;6209009;23;20016;-62
2023/08/13 11:40:38;;;;;;;8.82;2.88;;;;;;;;;;6208536;23;20020;-64
2023/08/13 11:44:18;;;;;;;10.23;3.00;;;;;;;;;;6210209;23;20458;-60
2023/08/13 11:48:02;;;;;;;8.80;2.97;;;;;;;;;;6207987;23;20013;-62
2023/08/13 11:51:51;;;;;;;9.80;3.30;;;;;;;;;;6209307;23;20141;-60
2023/08/13 11:55:32;;;;;;;11.75;3.40;;;;;;;;;;6209814;23;20017;-61
2023/08/13 11:59:12;;;;;;;7.22;3.10;;;;;;;;;;6210428;23;20021;-60
2023/08/13 12:02:52;;;;;;;6.55;3.05;;;;;;;;;;6207830;23;20414;-61
2023/08/13 12:06:33;;;;;;;7.90;3.33;;;;;;;;;;6209245;23;20045;-63
2023/08/13 12:10:13;;;;;;;14.02;3.47;;;;;;;;;;6209147;23;20544;-60
2023/08/13 12:13:54;;;;;;;9.25;3.20;;;;;;;;;;6208522;23;20086;-60
2023/08/13 12:17:34;;;;;;;5.68;2.70;;;;;;;;;;6209061;23;20031;-62
2023/08/13 12:21:14;;;;;;;9.65;3.10;;;;;;;;;;6209590;23;20012;-62
2023/08/13 12:24:55;;;;;;;6.45;2.85;;;;;;;;;;6209791;23;20047;-62
2023/08/13 12:28:35;;;;;;;5.22;2.80;;;;;;;;;;6209036;23;20024;-60
2023/08/13 12:32:16;;;;;;;12.23;3.20;;;;;;;;;;6207456;23;20401;-62
2023/08/13 12:35:56;;;;;;;7.45;2.90;;;;;;;;;;6209451;23;20044;-61
2023/08/13 12:39:36;;;;;;;6.43;2.85;;;;;;;;;;6209439;23;20017;-62
2023/08/13 12:43:17;;;;;;;7.70;3.25;;;;;;;;;;6208909;23;20013;-61
2023/08/13 12:46:57;;;;;;;10.25;3.22;;;;;;;;;;6206866;23;20025;-60
2023/08/13 12:50:37;;;;;;;8.55;3.25;;;;;;;;;;6209138;23;20028;-63
2023/08/13 12:54:18;;;;;;;10.18;3.00;;;;;;;;;;6209506;23;20470;-62
2023/08/13 12:57:58;;;;;;;6.97;3.05;;;;;;;;;;6208996;23;20056;-60
2023/08/13 13:01:38;;;;;;;8.00;3.05;;;;;;;;;;6208281;23;20096;-62
2023/08/13 13:05:18;;;;;;;6.18;2.97;;;;;;;;;;6209782;23;20718;-61
2023/08/13 13:08:59;;;;;;;7.88;3.22;;;;;;;;;;6208864;23;20020;-62
2023/08/13 13:12:40;;;;;;;10.18;3.17;;;;;;;;;;6208652;23;20335;-61
2023/08/13 13:16:19;;;;;;;10.65;2.90;;;;;;;;;;6208917;23;20016;-61
2023/08/13 13:20:06;;;;;;;7.88;3.63;;;;;;;;;;6208114;23;20335;-60
2023/08/13 13:23:40;;;;;;;8.02;3.00;;;;;;;;;;6209296;23;20020;-62
2023/08/13 13:27:20;;;;;;;7.85;2.72;;;;;;;;;;6208634;23;20079;-62
2023/08/13 13:31:01;;;;;;;5.45;2.72;;;;;;;;;;6208682;23;20042;-62
2023/08/13 13:34:41;;;;;;;7.82;3.08;;;;;;;;;;6208512;23;20079;-62
2023/08/13 13:38:22;;;;;;;10.35;3.08;;;;;;;;;;6210972;23;20469;-59
2023/08/13 13:42:02;;;;;;;8.02;2.80;;;;;;;;;;6210324;23;20024;-59
2023/08/13 13:45:42;;;;;;;7.40;2.95;;;;;;;;;;6211128;23;20480;-58
2023/08/13 13:49:23;;;;;;;7.53;3.05;;;;;;;;;;6210857;23;20527;-58
2023/08/13 13:53:03;;;;;;;7.60;3.38;;;;;;;;;;6211378;23;20017;-56
2023/08/13 13:56:43;;;;;;;7.85;3.00;;;;;;;;;;6210896;23;20020;-56
2023/08/13 14:00:24;;;;;;;10.65;3.03;;;;;;;;;;6210104;23;20016;-58
2023/08/13 14:04:04;;;;;;;7.55;3.00;;;;;;;;;;6210962;23;20021;-57
2023/08/13 14:07:44;;;;;;;8.85;3.30;;;;;;;;;;6210959;23;20028;-63
2023/08/13 14:11:25;;;;;;;8.32;2.95;;;;;;;;;;6211774;23;20391;-58
2023/08/13 14:15:05;;;;;;;10.50;3.13;;;;;;;;;;6211347;23;20095;-60
2023/08/13 14:18:45;;;;;;;10.93;3.17;;;;;;;;;;6210906;23;20023;-57
2023/08/13 14:22:25;;;;;;;8.75;3.28;;;;;;;;;;6209602;23;20016;-61
2023/08/13 14:26:08;;;;;;;6.63;3.10;;;;;;;;;;6212312;23;20017;-65
2023/08/13 14:29:46;;;;;;;12.85;3.42;;;;;;;;;;6211411;23;20454;-64
2023/08/13 14:33:26;;;;;;;10.65;3.22;;;;;;;;;;6211130;23;20020;-63
2023/08/13 14:37:07;;;;;;;12.77;3.63;;;;;;;;;;6211056;23;20358;-62
2023/08/13 14:40:24;;;;;;;8.88;2.90;;;;;;;;;;6210930;23;20078;-64
2023/08/13 14:42:50;;;;;;;14.32;3.25;;;;;;;;;;6211317;23;20043;-64
2023/08/13 14:45:16;;;;;;;5.85;3.20;;;;;;;;;;6211697;23;20454;-64
2023/08/13 14:47:42;;;;;;;8.85;3.05;;;;;;;;;;6210407;23;20021;-61
2023/08/13 14:50:48;;;;;;;7.03;3.10;;;;;;;;;;6207968;23;20096;-58
2023/08/13 14:54:28;;;;;;;10.00;3.15;;;;;;;;;;6207694;23;20044;-59
2023/08/13 14:58:09;;;;;;;7.93;2.90;;;;;;;;;;6208437;23;20024;-60
2023/08/13 15:01:49;;;;;;;9.35;3.00;;;;;;;;;;6207166;23;20354;-58
2023/08/13 15:05:29;;;;;;;7.85;3.00;;;;;;;;;;6208375;23;20024;-59
2023/08/13 15:09:11;;;;;;;9.55;2.65;;;;;;;;;;6204619;23;20416;-59
2023/08/13 15:12:53;;;;;;;8.40;3.00;;;;;;;;;;6208395;23;20358;-59
2023/08/13 15:16:33;;;;;;;8.52;2.42;;;;;;;;;;6209103;23;20020;-56
2023/08/13 15:20:14;;;;;;;5.32;2.63;;;;;;;;;;6208096;23;20095;-60
2023/08/13 15:23:53;;;;;;;6.03;2.75;;;;;;;;;;6206995;23;20021;-56
2023/08/13 15:27:34;;;;;;;6.72;3.00;;;;;;;;;;6207207;23;20021;-61
2023/08/13 15:31:14;;;;;;;6.70;2.70;;;;;;;;;;6207326;23;20020;-61
2023/08/13 15:34:55;;;;;;;6.68;2.83;;;;;;;;;;6207006;23;20031;-57
2023/08/13 15:38:35;;;;;;;8.32;3.17;;;;;;;;;;6207131;23;20020;-58
2023/08/13 15:42:15;;;;;;;7.03;2.60;;;;;;;;;;6207577;23;20021;-61
2023/08/13 15:45:55;;;;;;;6.47;2.50;;;;;;;;;;6208543;23;20414;-58
2023/08/13 15:49:36;;;;;;;8.82;2.75;;;;;;;;;;6207449;23;20309;-61
2023/08/13 15:53:16;;;;;;;6.72;2.58;;;;;;;;;;6207607;23;20064;-60
2023/08/13 15:56:57;;;;;;;7.93;2.75;;;;;;;;;;6206804;23;20024;-60
2023/08/13 16:00:37;;;;;;;5.93;2.50;;;;;;;;;;6206931;23;20017;-62
2023/08/13 16:04:17;;;;;;;10.05;2.63;;;;;;;;;;6207140;23;20020;-62
2023/08/13 16:07:58;;;;;;;11.45;2.90;;;;;;;;;;6204669;23;20055;-59
2023/08/13 16:11:38;;;;;;;5.55;2.70;;;;;;;;;;6207170;23;20111;-57
2023/08/13 16:15:28;;;;;;;9.10;3.00;;;;;;;;;;6206302;23;20379;-59
2023/08/13 16:18:34;;;;;;;8.20;2.35;;;;;;;;;;6207225;23;20021;-58
2023/08/13 16:22:14;;;;;;;5.03;2.50;;;;;;;;;;6206660;23;20027;-58
2023/08/13 16:25:55;;;;;;;8.82;3.10;;;;;;;;;;6207667;23;20020;-60
2023/08/13 16:29:35;;;;;;;7.43;2.70;;;;;;;;;;6207149;23;20107;-60
2023/08/13 16:32:45;;;;;;;5.05;2.50;;;;;;;;;;6206484;23;20477;-60
2023/08/13 16:36:26;;;;;;;7.32;2.70;;;;;;;;;;6206933;23;20719;-61
2023/08/13 16:40:04;;;;;;;9.23;2.95;;;;;;;;;;6206362;23;20699;-58
2023/08/13 16:43:44;;;;;;;13.30;2.78;;;;;;;;;;6207061;23;20059;-60
2023/08/13 16:47:24;;;;;;;7.32;2.47;;;;;;;;;;6206888;23;20106;-58
2023/08/13 16:51:04;;;;;;;6.85;2.55;;;;;;;;;;6207181;23;20428;-62
2023/08/13 16:54:45;;;;;;;7.63;3.00;;;;;;;;;;6204540;23;20024;-59
2023/08/13 16:58:25;;;;;;;9.07;2.55;;;;;;;;;;6205217;23;20017;-60
2023/08/13 17:01:43;;;;;;;8.93;2.50;;;;;;;;;;6204825;23;20027;-60
2023/08/13 17:04:09;;;;;;;9.23;2.28;;;;;;;;;;6205198;23;20091;-61
2023/08/13 17:07:15;;;;;;;8.63;2.80;;;;;;;;;;6205916;23;20445;-60
2023/08/13 17:10:56;;;;;;;4.68;2.20;;;;;;;;;;6204901;23;20032;-59
2023/08/13 17:14:36;;;;;;;7.88;2.30;;;;;;;;;;6208204;23;20466;-57
2023/08/13 17:18:16;;;;;;;8.65;2.42;;;;;;;;;;6206814;23;20080;-60
2023/08/13 17:21:38;;;;;;;10.35;2.10;;;;;;;;;;6206214;23;20070;-61
2023/08/13 17:24:44;;;;;;;6.85;2.30;;;;;;;;;;6205393;23;20043;-56
2023/08/13 17:28:25;;;;;;;7.60;2.13;;;;;;;;;;6205997;23;20021;-60
2023/08/13 17:32:05;;;;;;;5.90;2.22;;;;;;;;;;6208187;23;20323;-58
2023/08/13 17:35:45;;;;;;;5.85;2.10;;;;;;;;;;6208123;23;20073;-57
2023/08/13 17:39:26;;;;;;;3.83;1.90;;;;;;;;;;6208859;23;20021;-60
2023/08/13 17:43:06;;;;;;;5.22;2.13;;;;;;;;;;6208167;23;20096;-61
2023/08/13 17:46:43;;;;;;;7.45;2.17;;;;;;;;;;6208667;23;20021;-60
2023/08/13 17:49:50;;;;;;;5.80;2.15;;;;;;;;;;6208919;23;20019;-58
2023/08/13 17:53:29;;;;;;;5.43;2.08;;;;;;;;;;6210826;23;20023;-61
2023/08/13 17:57:09;;;;;;;6.47;2.22;;;;;;;;;;6210060;23;20016;-61
2023/08/13 18:00:49;;;;;;;5.50;1.88;;;;;;;;;;6210144;23;20017;-60
2023/08/13 18:04:31;;;;;;;4.75;1.83;;;;;;;;;;6211181;23;20020;-60
2023/08/13 18:07:46;;;;;;;10.38;2.03;;;;;;;;;;6209812;23;20020;-60
2023/08/13 18:11:27;;;;;;;13.35;2.22;;;;;;;;;;6211072;23;20100;-59
2023/08/13 18:14:49;;;;;;;6.97;1.95;;;;;;;;;;6210122;23;20031;-61
2023/08/13 18:18:29;;;;;;;7.50;1.77;;;;;;;;;;6205928;23;20626;-60
2023/08/13 18:22:09;;;;;;;9.88;2.40;;;;;;;;;;6211026;23;20020;-59
2023/08/13 18:25:50;;;;;;;8.95;2.30;;;;;;;;;;6209511;23;20020;-60
2023/08/13 18:29:31;;;;;;;4.07;1.92;;;;;;;;;;6210427;23;20021;-60
2023/08/13 18:32:33;;;;;;;7.78;2.08;;;;;;;;;;6210124;23;20028;-61
2023/08/13 18:35:39;;;;;;;9.52;2.20;;;;;;;;;;6212628;23;20021;-62
2023/08/13 18:39:19;;;;;;;7.03;2.20;;;;;;;;;;6212063;23;20454;-59
2023/08/13 18:43:00;;;;;;;7.72;2.10;;;;;;;;;;6211803;23;20025;-59
2023/08/13 18:46:40;;;;;;;8.20;2.13;;;;;;;;;;6210755;23;20083;-62
2023/08/13 18:50:20;;;;;;;12.27;2.70;;;;;;;;;;6210128;23;20442;-58
2023/08/13 18:53:21;;;;;;;7.38;2.08;;;;;;;;;;6209571;23;20020;-59
2023/08/13 18:56:27;;;;;;;7.68;2.53;;;;;;;;;;6211736;23;20525;-61
2023/08/13 19:00:07;;;;;;;6.45;2.25;;;;;;;;;;6211130;23;20024;-60
2023/08/13 19:03:49;;;;;;;8.13;2.25;;;;;;;;;;6212845;23;20067;-60
2023/08/13 19:07:28;;;;;;;7.10;2.42;;;;;;;;;;6212462;23;20103;-56
2023/08/13 19:10:29;;;;;;;8.05;2.17;;;;;;;;;;6210961;23;20398;-61
2023/08/13 19:13:35;;;;;;;11.18;3.10;;;;;;;;;;6211674;23;20019;-60
2023/08/13 19:17:16;;;;;;;9.43;2.30;;;;;;;;;;6210495;23;20122;-61
2023/08/13 19:20:49;;;;;;;6.65;2.40;;;;;;;;;;6210311;23;20075;-62
2023/08/13 19:24:26;;;;;;;6.30;2.13;;;;;;;;;;6210328;23;20027;-66
2023/08/13 19:28:06;;;;;;;6.43;2.58;;;;;;;;;;6210166;23;20090;-61
2023/08/13 19:31:46;;;;;;;17.55;4.10;;;;;;;;;;6209616;23;20024;-62
2023/08/13 19:35:28;;;;;;;10.45;2.85;;;;;;;;;;6208663;23;20332;-59
2023/08/13 19:38:45;;;;;;;7.32;2.50;;;;;;;;;;6210276;23;20017;-62
2023/08/13 19:41:51;;;;;;;10.32;2.55;;;;;;;;;;6209436;23;20052;-60
2023/08/13 19:45:31;;;;;;;4.05;2.20;;;;;;;;;;6209987;23;20017;-59
2023/08/13 19:49:12;;;;;;;15.77;2.63;;;;;;;;;;6209193;23;20016;-62
2023/08/13 19:52:52;;;;;;;6.70;2.30;;;;;;;;;;6209712;23;20020;-62
2023/08/13 19:56:33;;;;;;;4.55;1.95;;;;;;;;;;6209279;23;20354;-61
2023/08/13 20:00:13;;;;;;;10.75;2.65;;;;;;;;;;6209921;23;20052;-58
2023/08/13 20:03:53;;;;;;;7.63;2.60;;;;;;;;;;6210080;23;20099;-60
2023/08/13 20:07:34;;;;;;;7.20;2.50;;;;;;;;;;6210026;23;20071;-60
2023/08/13 20:11:14;;;;;;;7.63;2.22;;;;;;;;;;6209850;23;20055;-59
2023/08/13 20:14:54;;;;;;;6.18;2.28;;;;;;;;;;6209691;23;20035;-59
2023/08/13 20:18:35;;;;;;;6.72;2.10;;;;;;;;;;6208610;23;20473;-60
2023/08/13 20:22:27;;;;;;;7.97;2.40;;;;;;;;;;6209267;23;20074;-59
2023/08/13 20:26:08;;;;;;;7.65;2.10;;;;;;;;;;6209940;23;20021;-57
2023/08/13 20:29:49;;;;;;;7.35;2.22;;;;;;;;;;6209814;23;20555;-60
2023/08/13 20:33:29;;;;;;;8.85;2.10;;;;;;;;;;6209391;23;20052;-56
2023/08/13 20:37:09;;;;;;;6.85;2.28;;;;;;;;;;6208736;23;20413;-61
2023/08/13 20:40:53;;;;;;;5.70;2.22;;;;;;;;;;6209267;23;20021;-59
2023/08/13 20:44:32;;;;;;;6.20;2.38;;;;;;;;;;6210041;23;20027;-59
2023/08/13 20:48:11;;;;;;;10.90;2.40;;;;;;;;;;6209481;23;20016;-61
2023/08/13 20:51:51;;;;;;;7.50;2.47;;;;;;;;;;6208995;23;20020;-58
2023/08/13 20:55:32;;;;;;;4.75;2.55;;;;;;;;;;6208499;23;20121;-59
2023/08/13 20:59:12;;;;;;;6.95;2.35;;;;;;;;;;6209377;23;20013;-60
2023/08/13 21:02:53;;;;;;;6.75;2.72;;;;;;;;;;6207593;23;20020;-62
2023/08/13 21:06:33;;;;;;;10.60;2.25;;;;;;;;;;6207896;23;20122;-62
2023/08/13 21:10:13;;;;;;;5.00;2.40;;;;;;;;;;6203541;23;20130;-61
2023/08/13 21:13:54;;;;;;;5.18;2.00;;;;;;;;;;6207434;23;20052;-62
2023/08/13 21:17:34;;;;;;;5.85;2.22;;;;;;;;;;6206904;23;20358;-59
2023/08/13 21:21:14;;;;;;;8.25;2.53;;;;;;;;;;6208786;23;20028;-63
2023/08/13 21:24:55;;;;;;;8.10;2.40;;;;;;;;;;6208757;23;20024;-62
2023/08/13 21:28:35;;;;;;;7.55;2.63;;;;;;;;;;6206598;23;20426;-61
2023/08/13 21:32:15;;;;;;;11.23;2.63;;;;;;;;;;6207698;23;20092;-64
2023/08/13 21:35:56;;;;;;;8.18;2.38;;;;;;;;;;6208005;23;20093;-61
2023/08/13 21:39:36;;;;;;;11.10;2.53;;;;;;;;;;6208282;23;20124;-63
2023/08/13 21:43:16;;;;;;;8.57;2.33;;;;;;;;;;6206315;23;20458;-65
2023/08/13 21:46:56;;;;;;;6.65;2.28;;;;;;;;;;6206696;23;20021;-59
2023/08/13 21:50:37;;;;;;;9.10;2.50;;;;;;;;;;6207099;23;20032;-60
2023/08/13 21:54:17;;;;;;;12.75;2.63;;;;;;;;;;6206700;23;20021;-60
2023/08/13 21:57:58;;;;;;;8.68;2.63;;;;;;;;;;6205803;23;20028;-60